Time;durP1;ratioP1;P1;durP2;ratioP2;P2;SDS_P1;SDS_P2;PMS_P1;PMS_P2;Temp;Humidity;BMP_temperature;BMP_pressure;BME280_temperature;BME280_humidity;BME280_pressure;Samples;Min_cycle;Max_cycle;Signal;HPM_P1;HPM_P2
2021/05/20 00:00:17;;;;;;;3.38;1.00;;;18.40;67.20;;;;;;5069963;28;20495;-77
2021/05/20 00:02:43;;;;;;;1.77;0.90;;;18.40;67.70;;;;;;5052357;28;20181;-76
2021/05/20 00:05:10;;;;;;;1.92;0.90;;;18.40;68.30;;;;;;5049084;28;20026;-78
2021/05/20 00:07:36;;;;;;;1.55;0.80;;;18.40;68.80;;;;;;5064464;28;20123;-77
2021/05/20 00:10:04;;;;;;;1.65;0.70;;;18.40;69.00;;;;;;5060286;28;20120;-73
2021/05/20 00:12:29;;;;;;;1.83;0.73;;;18.40;69.30;;;;;;5051388;28;20025;-77
2021/05/20 00:14:55;;;;;;;3.28;0.88;;;18.40;69.70;;;;;;5051509;28;20027;-77
2021/05/20 00:17:20;;;;;;;2.28;1.00;;;18.40;69.80;;;;;;5056600;28;20111;-78
2021/05/20 00:19:46;;;;;;;0.82;0.68;;;18.40;69.90;;;;;;5053734;28;20021;-77
2021/05/20 00:22:12;;;;;;;1.95;1.17;;;18.40;70.10;;;;;;5062497;28;20457;-78
2021/05/20 00:24:37;;;;;;;2.15;1.23;;;18.40;70.30;;;;;;5064594;28;20033;-77
2021/05/20 00:27:03;;;;;;;2.33;1.00;;;18.30;70.50;;;;;;5063875;28;20381;-76
2021/05/20 00:29:29;;;;;;;2.38;0.90;;;18.30;70.30;;;;;;5049151;28;20033;-78
2021/05/20 00:31:55;;;;;;;3.28;0.90;;;18.30;70.40;;;;;;5048473;28;20400;-77
2021/05/20 00:34:20;;;;;;;2.58;1.00;;;18.30;70.30;;;;;;5069847;28;20477;-77
2021/05/20 00:36:46;;;;;;;3.65;1.02;;;18.30;70.40;;;;;;5063789;28;20028;-78
2021/05/20 00:39:12;;;;;;;2.42;0.93;;;18.30;70.30;;;;;;5051247;28;20508;-78
2021/05/20 00:41:38;;;;;;;2.08;0.90;;;18.30;70.30;;;;;;5065387;28;20028;-77
2021/05/20 00:44:04;;;;;;;2.40;0.90;;;18.30;70.20;;;;;;5057288;28;20515;-73
2021/05/20 00:46:29;;;;;;;2.58;1.02;;;18.30;70.20;;;;;;5055992;28;20024;-78
2021/05/20 00:48:55;;;;;;;3.13;1.27;;;18.30;70.00;;;;;;5064552;28;20087;-76
2021/05/20 00:51:20;;;;;;;1.92;0.98;;;18.30;69.90;;;;;;5053143;28;20135;-78
2021/05/20 00:53:50;;;;;;;2.40;1.05;;;18.30;69.80;;;;;;5060970;28;20036;-78
2021/05/20 00:56:18;;;;;;;1.60;1.10;;;18.20;69.70;;;;;;5057711;28;20107;-78
2021/05/20 00:58:45;;;;;;;2.17;1.10;;;18.20;69.60;;;;;;5053918;28;20507;-77
2021/05/20 01:01:11;;;;;;;3.88;1.02;;;18.20;69.60;;;;;;5056771;28;20028;-76
2021/05/20 01:03:38;;;;;;;3.67;1.00;;;18.20;69.50;;;;;;5055257;28;20455;-77
2021/05/20 01:06:04;;;;;;;1.45;0.75;;;18.20;69.50;;;;;;5064336;28;20013;-78
2021/05/20 01:08:29;;;;;;;1.95;0.85;;;18.20;69.40;;;;;;5072146;28;20040;-75
2021/05/20 01:10:55;;;;;;;1.80;1.00;;;18.20;69.30;;;;;;5050584;28;20032;-78
2021/05/20 01:13:21;;;;;;;3.00;0.75;;;18.20;69.30;;;;;;5073340;28;20452;-77
2021/05/20 01:15:47;;;;;;;2.42;0.90;;;18.20;69.20;;;;;;5055601;28;20469;-77
2021/05/20 01:18:13;;;;;;;1.83;0.90;;;18.20;69.00;;;;;;5064860;28;20086;-78
2021/05/20 01:20:41;;;;;;;2.20;0.88;;;18.10;68.90;;;;;;5071426;28;20025;-77
2021/05/20 01:23:16;;;;;;;1.45;0.70;;;18.10;68.80;;;;;;5055776;28;20040;-78
2021/05/20 01:25:46;;;;;;;1.10;0.70;;;18.10;68.70;;;;;;5061599;28;20054;-76
2021/05/20 01:28:14;;;;;;;1.05;0.60;;;18.10;68.60;;;;;;5063838;28;20043;-76
2021/05/20 01:30:41;;;;;;;2.42;0.95;;;18.10;68.60;;;;;;5054409;28;20108;-76
2021/05/20 01:33:07;;;;;;;2.55;1.20;;;18.10;68.50;;;;;;5067205;28;20036;-77
2021/05/20 01:35:33;;;;;;;2.58;1.35;;;18.10;68.40;;;;;;5073315;28;20024;-77
2021/05/20 01:41:02;;;;;;;2.15;0.70;;;18.00;68.30;;;;;;5055077;28;20029;-78
2021/05/20 01:43:28;;;;;;;2.13;0.90;;;18.00;68.20;;;;;;5061180;28;20090;-78
2021/05/20 01:45:58;;;;;;;2.25;0.88;;;18.00;68.10;;;;;;5053851;28;20076;-77
2021/05/20 01:48:33;;;;;;;2.92;0.73;;;18.00;68.10;;;;;;5069825;28;20099;-78
2021/05/20 01:51:02;;;;;;;1.52;0.88;;;18.00;68.10;;;;;;5065834;28;20028;-78
2021/05/20 01:53:28;;;;;;;1.50;0.80;;;18.00;68.00;;;;;;5072445;28;20040;-78
2021/05/20 01:55:54;;;;;;;1.98;0.90;;;18.00;67.90;;;;;;5071613;28;20134;-78
2021/05/20 01:58:20;;;;;;;2.03;0.98;;;18.00;68.00;;;;;;5053790;28;20501;-78
2021/05/20 02:00:45;;;;;;;3.13;1.02;;;17.90;67.90;;;;;;5053228;28;20031;-77
2021/05/20 02:03:11;;;;;;;1.83;1.02;;;17.90;67.80;;;;;;5064301;28;20393;-76
2021/05/20 02:05:37;;;;;;;2.25;0.80;;;17.90;67.80;;;;;;5054025;28;20067;-77
2021/05/20 02:08:03;;;;;;;2.60;0.82;;;17.90;67.80;;;;;;5051846;28;20459;-78
2021/05/20 02:10:29;;;;;;;1.80;0.80;;;17.90;67.70;;;;;;5052414;28;20489;-78
2021/05/20 02:12:55;;;;;;;3.53;0.90;;;17.90;67.60;;;;;;5070031;28;20070;-78
2021/05/20 02:15:20;;;;;;;2.47;0.77;;;17.90;67.50;;;;;;5072001;28;20115;-77
2021/05/20 02:17:46;;;;;;;1.90;0.80;;;17.90;67.40;;;;;;5065437;28;20040;-77
2021/05/20 02:20:12;;;;;;;2.13;0.90;;;17.90;67.40;;;;;;5061111;28;20035;-76
2021/05/20 02:22:38;;;;;;;1.55;0.63;;;17.80;67.30;;;;;;5058471;28;20552;-76
2021/05/20 02:25:05;;;;;;;2.67;1.00;;;17.80;67.30;;;;;;5071600;28;20112;-77
2021/05/20 02:27:31;;;;;;;2.17;0.70;;;17.80;67.20;;;;;;5056534;28;20036;-78
2021/05/20 02:29:57;;;;;;;4.60;0.63;;;17.80;67.10;;;;;;5033249;28;20025;-78
2021/05/20 02:32:22;;;;;;;2.78;1.02;;;17.80;67.10;;;;;;5067686;28;20032;-77
2021/05/20 02:34:48;;;;;;;1.60;1.05;;;17.80;67.00;;;;;;5057129;28;20082;-77
2021/05/20 02:37:13;;;;;;;1.10;0.57;;;17.80;66.90;;;;;;5073204;28;20029;-77
2021/05/20 02:39:39;;;;;;;5.78;0.80;;;17.80;66.80;;;;;;5071465;28;20496;-73
2021/05/20 02:42:05;;;;;;;3.30;1.17;;;17.80;66.90;;;;;;5059172;28;20032;-77
2021/05/20 02:44:31;;;;;;;2.95;0.70;;;17.80;66.80;;;;;;5070100;28;20028;-76
2021/05/20 02:46:57;;;;;;;2.10;0.63;;;17.80;66.80;;;;;;5061104;28;20032;-78
2021/05/20 02:49:22;;;;;;;3.47;0.82;;;17.70;66.70;;;;;;5071762;28;20074;-78
2021/05/20 02:51:48;;;;;;;2.55;0.80;;;17.70;66.70;;;;;;5070256;28;20103;-77
2021/05/20 02:54:14;;;;;;;3.03;0.90;;;17.70;66.60;;;;;;5055253;28;20588;-78
2021/05/20 02:56:40;;;;;;;3.60;1.13;;;17.70;66.60;;;;;;5076890;28;20104;-77
2021/05/20 02:59:08;;;;;;;1.55;0.60;;;17.70;66.60;;;;;;5047900;28;20060;-78
2021/05/20 03:01:40;;;;;;;3.00;0.73;;;17.70;66.50;;;;;;5062673;28;20032;-78
2021/05/20 03:04:05;;;;;;;1.45;0.60;;;17.70;66.40;;;;;;5051026;28;20082;-78
2021/05/20 03:06:31;;;;;;;2.78;0.80;;;17.70;66.50;;;;;;5061407;28;20033;-77
2021/05/20 03:08:57;;;;;;;2.25;0.75;;;17.70;66.40;;;;;;5069917;28;20108;-78
2021/05/20 03:11:26;;;;;;;1.90;0.82;;;17.60;66.30;;;;;;5066008;28;20489;-78
2021/05/20 03:13:52;;;;;;;2.55;0.90;;;17.70;66.30;;;;;;5058059;28;20047;-78
2021/05/20 03:16:17;;;;;;;3.17;0.90;;;17.60;66.30;;;;;;5054584;28;20036;-77
2021/05/20 03:18:43;;;;;;;2.00;0.70;;;17.60;66.20;;;;;;5058069;28;20029;-77
2021/05/20 03:21:09;;;;;;;1.73;0.75;;;17.60;66.20;;;;;;5060088;28;20496;-78
2021/05/20 03:23:34;;;;;;;1.38;0.60;;;17.60;66.20;;;;;;5070536;28;20027;-76
2021/05/20 03:26:00;;;;;;;2.25;0.70;;;17.60;66.10;;;;;;5069767;28;20020;-76
2021/05/20 03:28:26;;;;;;;2.72;0.93;;;17.60;66.10;;;;;;5048520;28;20473;-77
2021/05/20 03:30:51;;;;;;;1.95;0.82;;;17.60;66.00;;;;;;5042082;28;20020;-77
2021/05/20 03:33:17;;;;;;;4.00;1.00;;;17.60;65.90;;;;;;5050660;28;20025;-77
2021/05/20 03:35:43;;;;;;;2.45;0.73;;;17.50;65.80;;;;;;5050501;28;20086;-76
2021/05/20 03:38:08;;;;;;;1.50;0.70;;;17.60;65.80;;;;;;5055225;28;20029;-78
2021/05/20 03:40:34;;;;;;;2.13;0.90;;;17.50;65.70;;;;;;5070381;28;20020;-78
2021/05/20 03:42:59;;;;;;;3.15;0.80;;;17.50;65.70;;;;;;5063156;28;20025;-78
2021/05/20 03:45:25;;;;;;;2.05;0.90;;;17.50;65.60;;;;;;5067257;28;20358;-76
2021/05/20 03:47:51;;;;;;;1.70;0.60;;;17.50;65.60;;;;;;5066910;28;20057;-78
2021/05/20 03:50:16;;;;;;;2.42;0.80;;;17.50;65.60;;;;;;5062636;28;20067;-75
2021/05/20 03:52:42;;;;;;;2.85;0.90;;;17.50;65.60;;;;;;5053802;28;20024;-75
2021/05/20 03:55:08;;;;;;;2.13;0.82;;;17.50;65.60;;;;;;5068818;28;20493;-77
2021/05/20 03:57:34;;;;;;;3.20;0.90;;;17.50;65.50;;;;;;5064770;28;20029;-76
2021/05/20 03:59:59;;;;;;;2.72;0.80;;;17.50;65.60;;;;;;5048782;28;20041;-77
2021/05/20 04:02:25;;;;;;;4.45;1.05;;;17.40;65.50;;;;;;5032168;28;20022;-76
2021/05/20 04:04:51;;;;;;;3.40;0.77;;;17.50;65.60;;;;;;5064417;28;20048;-75
2021/05/20 04:07:16;;;;;;;1.90;0.90;;;17.40;65.50;;;;;;5070352;28;20539;-76
2021/05/20 04:09:42;;;;;;;1.92;0.77;;;17.40;65.50;;;;;;5060814;28;20059;-77
2021/05/20 04:12:08;;;;;;;4.82;0.63;;;17.40;66.20;;;;;;5065700;28;20028;-76
2021/05/20 04:14:34;;;;;;;1.42;0.70;;;17.40;65.40;;;;;;5051558;28;20029;-76
2021/05/20 04:17:00;;;;;;;1.20;0.80;;;17.40;65.50;;;;;;5050501;28;20051;-76
2021/05/20 04:19:25;;;;;;;2.92;0.80;;;17.40;65.50;;;;;;5068273;28;20064;-76
2021/05/20 04:21:51;;;;;;;2.80;0.75;;;17.40;65.50;;;;;;5064553;28;20027;-77
2021/05/20 04:24:16;;;;;;;2.55;1.00;;;17.40;65.50;;;;;;5065255;28;20024;-75
2021/05/20 04:26:42;;;;;;;3.60;0.90;;;17.40;65.50;;;;;;5072225;28;20027;-76
2021/05/20 04:29:09;;;;;;;3.42;0.65;;;17.40;65.50;;;;;;5065323;28;20115;-76
2021/05/20 04:31:35;;;;;;;2.92;0.77;;;17.40;65.50;;;;;;5075193;28;20028;-76
2021/05/20 04:34:00;;;;;;;2.50;0.77;;;17.40;65.50;;;;;;5073271;28;20032;-75
2021/05/20 04:36:26;;;;;;;2.90;0.93;;;17.30;65.50;;;;;;5066861;28;20409;-75
2021/05/20 04:38:52;;;;;;;3.35;0.90;;;17.40;65.50;;;;;;5044761;28;20080;-77
2021/05/20 04:41:18;;;;;;;1.60;0.80;;;17.30;65.50;;;;;;5055225;28;20033;-76
2021/05/20 04:43:43;;;;;;;1.75;0.73;;;17.30;65.50;;;;;;5055318;28;20017;-76
2021/05/20 04:46:09;;;;;;;1.92;0.80;;;17.30;65.50;;;;;;5054675;28;20025;-74
2021/05/20 04:48:35;;;;;;;1.40;0.70;;;17.30;65.50;;;;;;5064575;28;20036;-75
2021/05/20 04:51:01;;;;;;;4.07;1.00;;;17.30;65.50;;;;;;5068852;28;20028;-75
2021/05/20 04:53:27;;;;;;;2.83;1.13;;;17.30;65.50;;;;;;5066216;28;20488;-77
2021/05/20 04:55:53;;;;;;;1.73;0.80;;;17.30;65.60;;;;;;5070234;28;20067;-75
2021/05/20 04:58:18;;;;;;;2.38;0.90;;;17.30;65.50;;;;;;5075086;28;20043;-77
2021/05/20 05:00:44;;;;;;;2.58;0.80;;;17.30;65.50;;;;;;5063364;28;20508;-79
2021/05/20 05:03:10;;;;;;;5.03;1.00;;;17.30;65.50;;;;;;5085244;28;20029;-78
2021/05/20 05:05:35;;;;;;;1.45;0.63;;;17.30;65.50;;;;;;5077294;28;20381;-78
2021/05/20 05:08:01;;;;;;;1.25;0.93;;;17.30;65.50;;;;;;5044992;28;20028;-77
2021/05/20 05:10:27;;;;;;;2.35;0.70;;;17.30;65.60;;;;;;5074646;28;20041;-78
2021/05/20 05:12:53;;;;;;;1.90;0.90;;;17.30;65.60;;;;;;5071413;28;20021;-78
2021/05/20 05:15:18;;;;;;;1.63;0.70;;;17.30;65.60;;;;;;5034653;28;20437;-75
2021/05/20 05:17:44;;;;;;;1.80;0.80;;;17.30;65.60;;;;;;5048326;28;20029;-78
2021/05/20 05:20:11;;;;;;;2.35;1.08;;;17.30;65.60;;;;;;5066469;28;20051;-78
2021/05/20 05:22:36;;;;;;;3.15;0.80;;;17.30;65.60;;;;;;5060879;28;20447;-79
2021/05/20 05:25:02;;;;;;;1.58;0.70;;;17.30;65.60;;;;;;5060191;28;20026;-79
2021/05/20 05:27:28;;;;;;;2.35;0.93;;;17.30;65.60;;;;;;5059618;28;20567;-79
2021/05/20 05:29:54;;;;;;;2.50;0.75;;;17.30;65.60;;;;;;5052292;28;20169;-71
2021/05/20 05:32:20;;;;;;;3.72;1.25;;;17.30;65.60;;;;;;5053197;28;20539;-76
2021/05/20 05:34:45;;;;;;;4.15;1.42;;;17.30;65.60;;;;;;5054355;28;20021;-79
2021/05/20 05:37:11;;;;;;;2.53;1.10;;;17.20;65.50;;;;;;5070188;28;20063;-78
2021/05/20 05:39:36;;;;;;;3.53;1.27;;;17.20;65.50;;;;;;5052730;28;20029;-79
2021/05/20 05:42:02;;;;;;;2.25;1.10;;;17.20;65.50;;;;;;5061010;28;20020;-79
2021/05/20 05:44:28;;;;;;;4.22;1.13;;;17.20;65.50;;;;;;5034068;28;20021;-79
2021/05/20 05:46:53;;;;;;;2.17;1.00;;;17.20;65.50;;;;;;5051819;28;20033;-79
2021/05/20 05:49:27;;;;;;;3.20;0.93;;;17.20;65.60;;;;;;5074203;28;20029;-80
2021/05/20 05:51:59;;;;;;;2.65;1.10;;;17.20;65.50;;;;;;5066492;28;20025;-77
2021/05/20 05:54:25;;;;;;;2.67;1.17;;;17.20;65.50;;;;;;5069629;28;20508;-76
2021/05/20 05:56:51;;;;;;;1.98;1.20;;;17.20;65.50;;;;;;5071377;28;20033;-77
2021/05/20 05:59:17;;;;;;;3.10;1.60;;;17.20;65.50;;;;;;5072079;28;20021;-75
2021/05/20 06:01:44;;;;;;;4.07;1.60;;;17.20;65.50;;;;;;5069261;28;20033;-77
2021/05/20 06:04:10;;;;;;;2.25;1.30;;;17.20;65.50;;;;;;5071664;28;20020;-76
2021/05/20 06:06:36;;;;;;;2.03;1.05;;;17.20;65.50;;;;;;5072329;28;20070;-77
2021/05/20 06:09:05;;;;;;;2.05;1.10;;;17.20;65.50;;;;;;5073672;28;20033;-78
2021/05/20 06:11:32;;;;;;;2.40;1.33;;;17.30;65.60;;;;;;5068224;28;20025;-76
2021/05/20 06:14:01;;;;;;;2.63;1.17;;;17.30;65.70;;;;;;5052943;28;20548;-78
2021/05/20 06:16:27;;;;;;;2.38;1.23;;;17.40;65.60;;;;;;5067078;28;20547;-80
2021/05/20 06:18:53;;;;;;;6.25;1.52;;;17.50;65.40;;;;;;5058733;28;20083;-79
2021/05/20 06:21:18;;;;;;;5.60;1.05;;;17.60;65.60;;;;;;5055995;28;20559;-85
2021/05/20 06:23:44;;;;;;;3.03;1.27;;;17.70;65.90;;;;;;5056036;28;20033;-82
2021/05/20 06:26:09;;;;;;;2.45;0.90;;;17.80;66.30;;;;;;5068078;28;20032;-81
2021/05/20 06:28:36;;;;;;;4.10;1.48;;;17.80;66.50;;;;;;5065090;28;20041;-81
2021/05/20 06:31:03;;;;;;;3.67;1.00;;;17.90;66.50;;;;;;5069207;28;20025;-83
2021/05/20 06:33:28;;;;;;;2.75;1.30;;;17.90;66.60;;;;;;5051121;28;20500;-83
2021/05/20 06:35:54;;;;;;;4.82;1.70;;;18.00;66.60;;;;;;5070287;28;20040;-79
2021/05/20 06:38:20;;;;;;;3.75;1.73;;;18.10;66.70;;;;;;5067342;28;20032;-82
2021/05/20 06:40:45;;;;;;;5.72;2.53;;;18.10;66.80;;;;;;5052041;28;20021;-80
2021/05/20 06:43:11;;;;;;;5.03;2.70;;;18.20;66.90;;;;;;5075105;28;20040;-81
2021/05/20 06:45:36;;;;;;;4.75;2.78;;;18.30;66.90;;;;;;5033049;28;20029;-81
2021/05/20 06:48:02;;;;;;;6.55;3.55;;;18.30;66.70;;;;;;5067957;28;20493;-79
2021/05/20 06:50:28;;;;;;;9.32;3.35;;;18.40;66.70;;;;;;5069157;28;20050;-79
2021/05/20 06:52:54;;;;;;;5.25;3.53;;;18.40;67.00;;;;;;5049819;28;20013;-77
2021/05/20 06:55:22;;;;;;;5.38;3.25;;;18.50;66.80;;;;;;5057827;28;20032;-77
2021/05/20 07:00:32;;;;;;;5.97;3.67;;;18.50;66.20;;;;;;5055438;28;20055;-79
2021/05/20 07:02:58;;;;;;;6.97;2.83;;;18.60;66.30;;;;;;5054843;28;20028;-80
2021/05/20 07:05:23;;;;;;;8.40;3.42;;;18.60;66.80;;;;;;5051079;28;20047;-79
2021/05/20 07:07:50;;;;;;;8.02;3.67;;;18.60;66.60;;;;;;5051259;28;20041;-78
2021/05/20 07:10:16;;;;;;;6.82;3.75;;;18.60;66.50;;;;;;5050449;28;20467;-84
2021/05/20 07:12:42;;;;;;;7.68;3.88;;;18.60;66.50;;;;;;5051486;28;20029;-80
2021/05/20 07:15:08;;;;;;;8.13;3.50;;;18.60;66.50;;;;;;5052487;28;20028;-84
2021/05/20 07:17:34;;;;;;;7.07;2.97;;;18.60;66.40;;;;;;5047116;28;20040;-86
2021/05/20 07:19:59;;;;;;;5.07;3.13;;;18.60;66.30;;;;;;5049724;28;20017;-84
2021/05/20 07:22:25;;;;;;;7.68;3.03;;;18.60;66.30;;;;;;5050101;28;20460;-84
2021/05/20 07:24:50;;;;;;;5.65;3.08;;;18.60;66.20;;;;;;5049892;28;20028;-84
2021/05/20 07:27:16;;;;;;;9.48;3.20;;;18.60;66.20;;;;;;5050833;28;20546;-83
2021/05/20 07:29:42;;;;;;;6.55;2.50;;;18.60;66.10;;;;;;5049704;28;20043;-82
2021/05/20 07:32:09;;;;;;;6.63;2.50;;;18.60;66.10;;;;;;5054805;28;20533;-87
2021/05/20 07:34:37;;;;;;;6.70;2.92;;;18.60;65.90;;;;;;5057407;28;20052;-84
2021/05/20 07:37:04;;;;;;;6.78;3.08;;;18.60;65.80;;;;;;5051232;28;20059;-83
2021/05/20 07:39:29;;;;;;;5.35;3.05;;;18.60;65.60;;;;;;5051765;28;20029;-86
2021/05/20 07:41:55;;;;;;;4.68;2.22;;;18.70;65.50;;;;;;5051632;28;20535;-81
2021/05/20 07:44:20;;;;;;;8.70;3.10;;;18.60;65.30;;;;;;5050748;28;20496;-82
2021/05/20 07:46:48;;;;;;;5.15;2.50;;;18.60;65.20;;;;;;5051729;28;20092;-81
2021/05/20 07:49:13;;;;;;;5.80;2.35;;;18.60;65.10;;;;;;5050212;28;20440;-80
2021/05/20 07:51:39;;;;;;;4.57;2.33;;;18.60;65.80;;;;;;5051521;28;20025;-80
2021/05/20 07:54:05;;;;;;;7.65;2.92;;;18.70;65.10;;;;;;5049583;28;20040;-81
2021/05/20 07:56:31;;;;;;;4.30;2.03;;;18.70;64.90;;;;;;5046015;28;20032;-83
2021/05/20 07:58:58;;;;;;;7.60;2.88;;;18.70;64.80;;;;;;5051250;28;20020;-79
2021/05/20 08:01:23;;;;;;;4.20;2.58;;;18.70;64.70;;;;;;5051226;28;20043;-82
2021/05/20 08:04:11;;;;;;;5.28;2.25;;;18.70;64.70;;;;;;5051622;28;20104;-84
2021/05/20 08:06:43;;;;;;;4.60;2.05;;;18.70;64.70;;;;;;5046473;28;20067;-85
2021/05/20 08:09:18;;;;;;;6.63;2.60;;;18.70;64.70;;;;;;5050721;28;20041;-83
2021/05/20 08:11:43;;;;;;;4.80;1.90;;;18.70;64.70;;;;;;5051157;28;20535;-77
2021/05/20 08:14:09;;;;;;;5.22;2.40;;;18.70;64.60;;;;;;5051349;28;20021;-79
2021/05/20 08:16:35;;;;;;;4.57;2.00;;;18.70;65.40;;;;;;5051331;28;20082;-76
2021/05/20 08:19:00;;;;;;;6.47;1.83;;;18.80;64.60;;;;;;5049921;28;20087;-83
2021/05/20 08:21:27;;;;;;;6.10;2.15;;;18.80;64.60;;;;;;5051044;28;20041;-82
2021/05/20 08:23:52;;;;;;;4.63;2.08;;;18.70;64.60;;;;;;5051572;28;20389;-84
2021/05/20 08:26:19;;;;;;;4.22;1.90;;;18.70;64.60;;;;;;5051190;28;20036;-83
2021/05/20 08:28:45;;;;;;;2.80;1.58;;;18.70;64.60;;;;;;5051115;28;20036;-82
2021/05/20 08:31:11;;;;;;;3.70;1.77;;;18.70;64.60;;;;;;5051266;28;20385;-83
2021/05/20 08:33:36;;;;;;;4.13;2.10;;;18.70;64.70;;;;;;5049913;28;20424;-87
2021/05/20 08:36:02;;;;;;;4.03;1.98;;;18.70;64.70;;;;;;5051235;28;20017;-82
2021/05/20 08:38:28;;;;;;;4.80;1.77;;;18.70;64.70;;;;;;5050674;28;20029;-81
2021/05/20 08:40:53;;;;;;;3.33;1.60;;;18.70;64.60;;;;;;5051442;28;20029;-81
2021/05/20 08:43:19;;;;;;;4.63;1.85;;;18.70;64.70;;;;;;5051149;28;20036;-79
2021/05/20 08:45:44;;;;;;;9.35;2.22;;;18.60;64.60;;;;;;5051299;28;20048;-81
2021/05/20 08:48:10;;;;;;;4.72;1.83;;;18.60;64.70;;;;;;5049285;28;20516;-81
2021/05/20 08:50:36;;;;;;;4.07;1.88;;;18.60;64.70;;;;;;5050835;28;20082;-82
2021/05/20 08:53:02;;;;;;;6.45;2.22;;;18.60;64.80;;;;;;5083372;28;20074;-83
2021/05/20 08:55:34;;;;;;;3.40;1.60;;;18.60;64.70;;;;;;5050955;28;20013;-85
2021/05/20 08:58:01;;;;;;;4.45;1.95;;;18.60;64.70;;;;;;5051036;28;20033;-81
2021/05/20 09:00:28;;;;;;;4.00;1.98;;;18.60;64.80;;;;;;5051232;28;20109;-86
2021/05/20 09:03:12;;;;;;;3.67;1.70;;;18.60;64.80;;;;;;5049870;28;20029;-84
2021/05/20 09:05:39;;;;;;;3.72;1.77;;;18.60;64.90;;;;;;5051061;28;20059;-85
2021/05/20 09:08:11;;;;;;;3.65;1.58;;;18.50;64.90;;;;;;5050171;28;20037;-86
2021/05/20 09:10:37;;;;;;;4.35;1.95;;;18.50;64.90;;;;;;5049740;28;20018;-83
2021/05/20 09:13:05;;;;;;;4.15;1.63;;;18.50;64.90;;;;;;5051035;28;20051;-84
2021/05/20 09:15:37;;;;;;;4.05;1.70;;;18.60;65.00;;;;;;5053112;28;20108;-84
2021/05/20 09:18:17;;;;;;;3.58;1.58;;;18.50;65.00;;;;;;5054097;28;20075;-85
2021/05/20 09:20:58;;;;;;;4.50;1.90;;;18.50;64.90;;;;;;5054239;28;20416;-84
2021/05/20 09:23:29;;;;;;;5.05;1.67;;;18.60;65.70;;;;;;5054610;28;20385;-84
2021/05/20 09:26:09;;;;;;;4.00;1.63;;;18.60;64.80;;;;;;5053882;28;20631;-83
2021/05/20 09:28:47;;;;;;;3.08;2.00;;;18.60;64.80;;;;;;5051670;28;20033;-84
2021/05/20 09:31:15;;;;;;;3.80;1.88;;;18.60;64.70;;;;;;5054587;28;20199;-82
2021/05/20 09:33:54;;;;;;;3.60;1.48;;;18.60;64.80;;;;;;5054325;28;20052;-84
2021/05/20 09:36:24;;;;;;;3.42;1.60;;;18.60;64.80;;;;;;5053317;28;20044;-81
2021/05/20 09:39:08;;;;;;;3.03;1.50;;;18.60;64.80;;;;;;5053234;28;20105;-82
2021/05/20 09:41:34;;;;;;;3.22;1.25;;;18.60;64.90;;;;;;5054170;28;20063;-80
2021/05/20 09:44:00;;;;;;;4.18;1.48;;;18.60;64.90;;;;;;5053300;28;20127;-77
2021/05/20 09:46:29;;;;;;;5.38;1.63;;;18.60;64.80;;;;;;5052722;28;20523;-78
2021/05/20 09:48:58;;;;;;;5.40;1.55;;;18.60;64.80;;;;;;5053569;28;20044;-78
2021/05/20 09:51:29;;;;;;;4.63;1.70;;;18.60;64.80;;;;;;5053207;28;20039;-78
2021/05/20 09:53:56;;;;;;;4.65;1.50;;;18.60;64.80;;;;;;5049117;28;20435;-77
2021/05/20 09:56:32;;;;;;;4.80;1.63;;;18.60;64.90;;;;;;5034141;28;20484;-79
2021/05/20 09:58:58;;;;;;;4.30;1.90;;;18.60;64.90;;;;;;5034072;28;20053;-78
2021/05/20 10:01:23;;;;;;;5.45;1.85;;;18.60;64.90;;;;;;5033622;28;20076;-78
2021/05/20 10:03:53;;;;;;;3.55;1.50;;;18.60;64.90;;;;;;5033767;28;20018;-79
2021/05/20 10:06:35;;;;;;;2.85;1.42;;;18.60;65.00;;;;;;5033733;28;20030;-78
2021/05/20 10:09:03;;;;;;;2.72;1.48;;;18.70;65.00;;;;;;5051678;28;20033;-78
2021/05/20 10:11:30;;;;;;;3.05;1.30;;;18.70;64.90;;;;;;5069286;28;20021;-78
2021/05/20 10:13:58;;;;;;;2.85;1.35;;;18.70;64.80;;;;;;5053557;28;20488;-78
2021/05/20 10:16:26;;;;;;;3.97;1.40;;;18.70;65.00;;;;;;5053385;28;20111;-78
2021/05/20 10:18:52;;;;;;;6.20;1.55;;;18.60;65.10;;;;;;5053376;28;20132;-77
2021/05/20 10:21:18;;;;;;;5.30;1.50;;;18.60;65.20;;;;;;5052725;28;20104;-79
2021/05/20 10:23:43;;;;;;;3.95;1.42;;;18.60;65.30;;;;;;5052935;28;20042;-78
2021/05/20 10:26:11;;;;;;;4.82;1.30;;;18.60;65.40;;;;;;5053133;28;20488;-78
2021/05/20 10:28:36;;;;;;;5.38;1.20;;;18.60;65.50;;;;;;5052607;28;20041;-79
2021/05/20 10:31:03;;;;;;;2.65;1.33;;;18.60;65.50;;;;;;5051834;28;20032;-79
2021/05/20 10:33:30;;;;;;;5.28;1.38;;;18.70;65.40;;;;;;5050987;28;20031;-86
2021/05/20 10:35:57;;;;;;;6.35;1.50;;;18.80;65.60;;;;;;5048847;28;20078;-86
2021/05/20 10:38:29;;;;;;;2.92;1.00;;;18.80;65.70;;;;;;5044032;28;20062;-85
2021/05/20 10:41:18;;;;;;;4.15;1.63;;;18.90;65.90;;;;;;5050923;28;20140;-83
2021/05/20 10:43:51;;;;;;;4.03;1.25;;;18.90;65.80;;;;;;5048967;28;20040;-77
2021/05/20 10:46:19;;;;;;;3.92;1.17;;;19.00;66.00;;;;;;5051000;28;20455;-73
2021/05/20 10:48:55;;;;;;;5.07;1.10;;;19.10;66.80;;;;;;5048206;28;20048;-76
2021/05/20 10:51:47;;;;;;;4.70;0.90;;;19.10;66.90;;;;;;5051321;28;20035;-76
2021/05/20 10:54:16;;;;;;;5.82;1.40;;;19.20;67.00;;;;;;5051748;28;20052;-78
2021/05/20 10:56:50;;;;;;;3.70;1.20;;;19.20;66.90;;;;;;5052721;28;20484;-75
2021/05/20 10:59:43;;;;;;;3.05;1.27;;;19.30;67.00;;;;;;5052670;28;20106;-77
2021/05/20 11:02:15;;;;;;;4.40;0.90;;;19.40;67.20;;;;;;5049989;28;20407;-76
2021/05/20 11:04:42;;;;;;;3.83;1.30;;;19.50;67.00;;;;;;5052561;28;20055;-75
2021/05/20 11:07:08;;;;;;;3.97;1.17;;;19.60;67.00;;;;;;5051806;28;20021;-75
2021/05/20 11:09:48;;;;;;;4.28;1.20;;;19.60;67.00;;;;;;5052370;28;20120;-75
2021/05/20 11:12:17;;;;;;;3.00;1.17;;;19.70;67.00;;;;;;5051249;28;20499;-75
2021/05/20 11:14:43;;;;;;;1.95;0.77;;;19.80;67.00;;;;;;5050265;28;20029;-75
2021/05/20 11:17:31;;;;;;;2.03;1.10;;;20.00;66.90;;;;;;5051352;28;20021;-74
2021/05/20 11:20:24;;;;;;;4.32;0.95;;;20.10;66.90;;;;;;5032413;28;20033;-74
2021/05/20 11:23:15;;;;;;;2.88;0.98;;;20.20;67.20;;;;;;5032317;28;20029;-78
2021/05/20 11:25:42;;;;;;;3.30;1.30;;;20.30;67.00;;;;;;5051579;28;20041;-75
2021/05/20 11:28:09;;;;;;;3.25;1.10;;;20.40;68.20;;;;;;5052212;28;20041;-74
2021/05/20 11:30:35;;;;;;;3.45;1.20;;;20.40;68.20;;;;;;5051695;28;20104;-74
2021/05/20 11:33:02;;;;;;;2.42;1.10;;;20.50;68.20;;;;;;5051324;28;20463;-75
2021/05/20 11:37:59;;;;;;;3.22;0.98;;;20.60;68.10;;;;;;5051627;28;20025;-75
2021/05/20 11:40:33;;;;;;;6.85;1.27;;;20.60;68.20;;;;;;5051523;28;20071;-76
2021/05/20 11:43:00;;;;;;;3.42;0.98;;;20.60;68.20;;;;;;5052076;28;20075;-75
2021/05/20 11:45:30;;;;;;;3.67;1.10;;;20.60;68.10;;;;;;5051906;28;20017;-76
2021/05/20 11:47:58;;;;;;;4.97;1.23;;;20.60;68.10;;;;;;5051252;28;20083;-77
2021/05/20 11:50:24;;;;;;;3.08;1.13;;;20.60;68.10;;;;;;5051436;28;20362;-75
2021/05/20 11:52:51;;;;;;;2.95;0.80;;;20.60;68.20;;;;;;5051709;28;20047;-74
2021/05/20 11:55:19;;;;;;;3.45;1.55;;;20.60;68.20;;;;;;5052249;28;20021;-74
2021/05/20 11:57:45;;;;;;;4.90;1.35;;;20.50;68.00;;;;;;5049703;28;20024;-75
2021/05/20 12:00:12;;;;;;;2.90;1.10;;;20.60;67.90;;;;;;5050997;28;20100;-71
2021/05/20 12:02:39;;;;;;;3.47;1.20;;;20.60;67.90;;;;;;5048981;28;20506;-74
2021/05/20 12:05:08;;;;;;;3.08;1.42;;;20.50;68.30;;;;;;5051192;28;20021;-74
2021/05/20 12:07:37;;;;;;;5.18;1.25;;;20.40;68.30;;;;;;5051030;28;20114;-74
2021/05/20 12:10:16;;;;;;;4.25;1.13;;;20.40;68.50;;;;;;5051575;28;20032;-74
2021/05/20 12:12:52;;;;;;;2.65;1.13;;;20.30;68.40;;;;;;5050678;28;20484;-73
2021/05/20 12:15:20;;;;;;;2.85;1.58;;;20.30;68.40;;;;;;5051213;28;20029;-74
2021/05/20 12:17:46;;;;;;;8.45;1.67;;;20.20;68.40;;;;;;5050529;28;20021;-74
2021/05/20 12:20:17;;;;;;;3.85;1.55;;;20.20;68.40;;;;;;5051535;28;20094;-74
2021/05/20 12:22:44;;;;;;;3.28;1.27;;;20.20;68.30;;;;;;5050598;28;20501;-73
2021/05/20 12:25:12;;;;;;;2.92;1.10;;;20.20;68.20;;;;;;5051080;28;20033;-74
2021/05/20 12:27:38;;;;;;;3.40;1.40;;;20.20;68.10;;;;;;5050531;28;20508;-73
2021/05/20 12:30:09;;;;;;;6.18;1.88;;;20.20;68.10;;;;;;5051602;28;20088;-72
2021/05/20 12:32:42;;;;;;;5.32;2.58;;;20.10;68.10;;;;;;5050150;28;20023;-73
2021/05/20 12:35:30;;;;;;;4.28;1.83;;;20.10;68.20;;;;;;5047266;28;20052;-73
2021/05/20 12:38:11;;;;;;;4.35;1.50;;;20.10;68.20;;;;;;5045798;28;20060;-73
2021/05/20 12:41:00;;;;;;;1.90;1.27;;;20.10;68.10;;;;;;5046933;28;20025;-74
2021/05/20 12:43:28;;;;;;;5.60;1.60;;;20.10;68.10;;;;;;5050588;28;20537;-75
2021/05/20 12:45:55;;;;;;;7.05;1.80;;;20.10;68.10;;;;;;5050792;28;20037;-73
2021/05/20 12:48:59;;;;;;;3.28;1.35;;;20.10;68.00;;;;;;5054301;28;20068;-74
2021/05/20 12:51:26;;;;;;;3.55;1.33;;;20.10;67.80;;;;;;5045906;28;20029;-74
2021/05/20 12:54:07;;;;;;;3.97;1.30;;;20.10;68.10;;;;;;5055121;28;20025;-74
2021/05/20 12:56:41;;;;;;;2.97;1.10;;;20.00;68.10;;;;;;5053625;28;20061;-74
2021/05/20 12:59:12;;;;;;;3.67;1.30;;;19.90;68.30;;;;;;5055319;28;20370;-73